Tokuyo Maru No.15 — JD2184 — position and weather

sailwx.info

Track history (hours):
 
Tides and Currents Weather Stations Pressure Air Temp Water Temp Dewpoint Dewpoint Depression Visibility Wind Speed Wind Dir Waves Ship Positions

Tokuyo Maru No.15

Last reported at 2016-Jul-26 19:33 UTC. Time now 2016-Jul-26 19:55 UTC.
Position N 35°23' E 140°37'.

Length 66 m; draft 4.5 m.

Type: Tanker. MMSI: 431402034.

Date/timePositionNaut miles runAvg speedWind from/ knotsBaromVisibWave heightAir tempDewpointWater temp
2016-Jul-26 19:33N 35°23' E 140°37'1212.0
2016-Jul-26 18:33N 35°14' E 140°27'1312.1
2016-Jul-26 17:30N 35°04' E 140°17'1212.7
2016-Jul-26 16:32N 34°58' E 140°04'1412.3
2016-Jul-26 15:24N 34°53' E 139°48'1011.5
2016-Jul-26 14:31N 35°03' E 139°45'1212.2
2016-Jul-26 13:33N 35°15' E 139°46'1010.6
2016-Jul-26 12:33N 35°25' E 139°44'1111.2
2016-Jul-26 11:33N 35°30' E 139°57'5 4.7
2016-Jul-26 10:32N 35°31' E 140°03'0 0.0
2016-Jul-26 09:29N 35°31' E 140°03'0 0.0
2016-Jul-26 08:23N 35°31' E 140°03'0 0.0
2016-Jul-26 07:29N 35°31' E 140°03'0 0.0
2016-Jul-26 06:28N 35°31' E 140°03'0 0.0
2016-Jul-26 04:31N 35°31' E 140°03'0 0.0
2016-Jul-26 03:31N 35°31' E 140°03'0 0.0
2016-Jul-26 02:28N 35°31' E 140°03'0 0.0
2016-Jul-26 01:28N 35°31' E 140°03'0 0.0
2016-Jul-26 00:31N 35°31' E 140°03'0 0.5
2016-Jul-25 23:34N 35°31' E 140°02'3 2.7
2016-Jul-25 22:33N 35°31' E 139°59'1212.1
2016-Jul-25 21:33N 35°24' E 139°46'1211.8
2016-Jul-25 20:33N 35°12' E 139°47'  
2016-Jul-23 16:22N 35°09' E 139°43'911.6
2016-Jul-23 15:33N 35°19' E 139°43'1111.2
2016-Jul-23 14:33N 35°29' E 139°50'1010.3
2016-Jul-23 13:33N 35°31' E 140°03'0 0.0
2016-Jul-23 12:31N 35°31' E 140°03'0 0.0
2016-Jul-23 11:31N 35°31' E 140°03'0 0.0
2016-Jul-23 10:28N 35°31' E 140°03'0 0.0
2016-Jul-23 09:31N 35°31' E 140°03'0 0.0
2016-Jul-23 08:31N 35°31' E 140°03'0 0.0
2016-Jul-23 07:31N 35°31' E 140°03'0 0.0
2016-Jul-23 06:28N 35°31' E 140°03'0 0.0
2016-Jul-23 04:25N 35°31' E 140°03'2 2.0
2016-Jul-23 03:33N 35°31' E 140°01'5 4.2
2016-Jul-23 02:27N 35°29' E 139°55'0 0.0
2016-Jul-23 01:30N 35°29' E 139°55'0 0.0
2016-Jul-23 00:33N 35°29' E 139°55'0 0.0
2016-Jul-22 23:33N 35°29' E 139°55'2 2.1
2016-Jul-22 22:33N 35°29' E 139°53'1111.1
2016-Jul-22 21:33N 35°20' E 139°44'1110.8
2016-Jul-22 20:33N 35°09' E 139°45'  
2016-Jul-20 16:30N 35°11' E 139°45'1011.0
2016-Jul-20 15:33N 35°21' E 139°42'1211.6
2016-Jul-20 14:33N 35°30' E 139°52'9 8.9
2016-Jul-20 13:33N 35°31' E 140°03'0 0.0
2016-Jul-20 12:33N 35°31' E 140°03'0 0.0
2016-Jul-20 11:33N 35°31' E 140°03'0 0.0
2016-Jul-20 10:33N 35°31' E 140°03'0 0.0
2016-Jul-20 09:33N 35°31' E 140°03'0 0.0
2016-Jul-20 08:27N 35°31' E 140°03'0 0.0
2016-Jul-20 07:33N 35°31' E 140°03'0 0.0
2016-Jul-20 06:33N 35°31' E 140°03'0 0.0
2016-Jul-20 05:33N 35°31' E 140°03'2 0.6
2016-Jul-20 02:33N 35°31' E 140°01'5 4.4
2016-Jul-20 01:30N 35°29' E 139°56'0 0.0
2016-Jul-20 00:33N 35°29' E 139°56'0 0.0
2016-Jul-19 23:33N 35°29' E 139°56'0 0.0
2016-Jul-19 22:33N 35°29' E 139°56'0 0.0
2016-Jul-19 21:21N 35°29' E 139°56'0 0.0
2016-Jul-19 20:30N 35°29' E 139°56'0 0.0
2016-Jul-19 19:33N 35°29' E 139°56'0 0.0
2016-Jul-19 18:33N 35°29' E 139°56'0 0.1
2016-Jul-19 17:33N 35°29' E 139°56'0 0.0
2016-Jul-19 16:33N 35°29' E 139°56'0 0.0
2016-Jul-19 15:27N 35°29' E 139°56'0 0.0
2016-Jul-19 14:33N 35°29' E 139°56'0 0.0
2016-Jul-19 13:30N 35°29' E 139°56'0 0.0
2016-Jul-19 12:30N 35°29' E 139°56'0 0.1
2016-Jul-19 11:33N 35°29' E 139°56'0 0.0
2016-Jul-19 10:33N 35°29' E 139°56'0 0.0
2016-Jul-19 09:30N 35°29' E 139°56'0 0.0
2016-Jul-19 08:33N 35°29' E 139°56'0 0.0
2016-Jul-19 07:24N 35°29' E 139°56'0 0.0
2016-Jul-19 06:33N 35°29' E 139°56'0 0.0
2016-Jul-19 04:33N 35°29' E 139°56'0 0.0
2016-Jul-19 03:30N 35°29' E 139°56'0 0.0
2016-Jul-19 02:30N 35°29' E 139°56'0 0.0
2016-Jul-19 01:30N 35°29' E 139°56'5 5.1
2016-Jul-19 00:33N 35°27' E 139°50'1110.5
2016-Jul-18 23:33N 35°18' E 139°45'  
Track history (hours):
 
Tides and Currents Weather Stations Pressure Air Temp Water Temp Dewpoint Dewpoint Depression Visibility Wind Speed Wind Dir Waves Ship Positions

Tokuyo Maru No.15

Last reported at 2016-Jul-26 19:33 UTC. Time now 2016-Jul-26 19:55 UTC.
Position N 35°23' E 140°37'.

Length 66 m; draft 4.5 m.

Type: Tanker. MMSI: 431402034.

Date/timePositionNaut miles runAvg speedWind from/ knotsBaromVisibWave heightAir tempDewpointWater temp
2016-Jul-26 19:33N 35°23' E 140°37'1212.0
2016-Jul-26 18:33N 35°14' E 140°27'1312.1
2016-Jul-26 17:30N 35°04' E 140°17'1212.7
2016-Jul-26 16:32N 34°58' E 140°04'1412.3
2016-Jul-26 15:24N 34°53' E 139°48'1011.5
2016-Jul-26 14:31N 35°03' E 139°45'1212.2
2016-Jul-26 13:33N 35°15' E 139°46'1010.6
2016-Jul-26 12:33N 35°25' E 139°44'1111.2
2016-Jul-26 11:33N 35°30' E 139°57'5 4.7
2016-Jul-26 10:32N 35°31' E 140°03'0 0.0
2016-Jul-26 09:29N 35°31' E 140°03'0 0.0
2016-Jul-26 08:23N 35°31' E 140°03'0 0.0
2016-Jul-26 07:29N 35°31' E 140°03'0 0.0
2016-Jul-26 06:28N 35°31' E 140°03'0 0.0
2016-Jul-26 04:31N 35°31' E 140°03'0 0.0
2016-Jul-26 03:31N 35°31' E 140°03'0 0.0
2016-Jul-26 02:28N 35°31' E 140°03'0 0.0
2016-Jul-26 01:28N 35°31' E 140°03'0 0.0
2016-Jul-26 00:31N 35°31' E 140°03'0 0.5
2016-Jul-25 23:34N 35°31' E 140°02'3 2.7
2016-Jul-25 22:33N 35°31' E 139°59'1212.1
2016-Jul-25 21:33N 35°24' E 139°46'1211.8
2016-Jul-25 20:33N 35°12' E 139°47'  
2016-Jul-23 16:22N 35°09' E 139°43'911.6
2016-Jul-23 15:33N 35°19' E 139°43'1111.2
2016-Jul-23 14:33N 35°29' E 139°50'1010.3
2016-Jul-23 13:33N 35°31' E 140°03'0 0.0
2016-Jul-23 12:31N 35°31' E 140°03'0 0.0
2016-Jul-23 11:31N 35°31' E 140°03'0 0.0
2016-Jul-23 10:28N 35°31' E 140°03'0 0.0
2016-Jul-23 09:31N 35°31' E 140°03'0 0.0
2016-Jul-23 08:31N 35°31' E 140°03'0 0.0
2016-Jul-23 07:31N 35°31' E 140°03'0 0.0
2016-Jul-23 06:28N 35°31' E 140°03'0 0.0
2016-Jul-23 04:25N 35°31' E 140°03'2 2.0
2016-Jul-23 03:33N 35°31' E 140°01'5 4.2
2016-Jul-23 02:27N 35°29' E 139°55'0 0.0
2016-Jul-23 01:30N 35°29' E 139°55'0 0.0
2016-Jul-23 00:33N 35°29' E 139°55'0 0.0
2016-Jul-22 23:33N 35°29' E 139°55'2 2.1
2016-Jul-22 22:33N 35°29' E 139°53'1111.1
2016-Jul-22 21:33N 35°20' E 139°44'1110.8
2016-Jul-22 20:33N 35°09' E 139°45'  
2016-Jul-20 16:30N 35°11' E 139°45'1011.0
2016-Jul-20 15:33N 35°21' E 139°42'1211.6
2016-Jul-20 14:33N 35°30' E 139°52'9 8.9
2016-Jul-20 13:33N 35°31' E 140°03'0 0.0
2016-Jul-20 12:33N 35°31' E 140°03'0 0.0
2016-Jul-20 11:33N 35°31' E 140°03'0 0.0
2016-Jul-20 10:33N 35°31' E 140°03'0 0.0
2016-Jul-20 09:33N 35°31' E 140°03'0 0.0
2016-Jul-20 08:27N 35°31' E 140°03'0 0.0
2016-Jul-20 07:33N 35°31' E 140°03'0 0.0
2016-Jul-20 06:33N 35°31' E 140°03'0 0.0
2016-Jul-20 05:33N 35°31' E 140°03'2 0.6
2016-Jul-20 02:33N 35°31' E 140°01'5 4.4
2016-Jul-20 01:30N 35°29' E 139°56'0 0.0
2016-Jul-20 00:33N 35°29' E 139°56'0 0.0
2016-Jul-19 23:33N 35°29' E 139°56'0 0.0
2016-Jul-19 22:33N 35°29' E 139°56'0 0.0
2016-Jul-19 21:21N 35°29' E 139°56'0 0.0
2016-Jul-19 20:30N 35°29' E 139°56'0 0.0
2016-Jul-19 19:33N 35°29' E 139°56'0 0.0
2016-Jul-19 18:33N 35°29' E 139°56'0 0.1
2016-Jul-19 17:33N 35°29' E 139°56'0 0.0
2016-Jul-19 16:33N 35°29' E 139°56'0 0.0
2016-Jul-19 15:27N 35°29' E 139°56'0 0.0
2016-Jul-19 14:33N 35°29' E 139°56'0 0.0
2016-Jul-19 13:30N 35°29' E 139°56'0 0.0
2016-Jul-19 12:30N 35°29' E 139°56'0 0.1
2016-Jul-19 11:33N 35°29' E 139°56'0 0.0
2016-Jul-19 10:33N 35°29' E 139°56'0 0.0
2016-Jul-19 09:30N 35°29' E 139°56'0 0.0
2016-Jul-19 08:33N 35°29' E 139°56'0 0.0
2016-Jul-19 07:24N 35°29' E 139°56'0 0.0
2016-Jul-19 06:33N 35°29' E 139°56'0 0.0
2016-Jul-19 04:33N 35°29' E 139°56'0 0.0
2016-Jul-19 03:30N 35°29' E 139°56'0 0.0
2016-Jul-19 02:30N 35°29' E 139°56'0 0.0
2016-Jul-19 01:30N 35°29' E 139°56'5 5.1
2016-Jul-19 00:33N 35°27' E 139°50'1110.5
2016-Jul-18 23:33N 35°18' E 139°45'  

Dump ship's entire track history